W.w. Crum — WDB7252 — position and weather

sailwx.info

Track history (hours):
 
Tides and Currents Weather Stations Pressure Air Temp Water Temp Dewpoint Dewpoint Depression Visibility Wind Speed Wind Dir Waves Ship Positions

W.w. Crum

Owner: Magnolia Marine Transport Co, Vicksburg, MS. More information available from US FCC via Universal Licensing System and Coast Guard Vessel Documentation Center.

Last reported at 2016-Aug-12 13:22 UTC. Time now 2016-Aug-28 02:19 UTC.
Position N 29°25' W 094°44'.
Warning: this ship's position is 15 days out of date.

Length 40 m; draft 3 m.

Type: Towing. MMSI: 366939330.

Date/timePositionNaut miles runAvg speedWind from/ knotsBaromVisibWave heightAir tempDewpointWater temp
2016-Aug-12 13:22N 29°25' W 094°44'0 0.0
2016-Aug-12 12:31N 29°25' W 094°44'0 0.0
2016-Aug-12 11:25N 29°25' W 094°44'0 0.0
2016-Aug-12 10:08N 29°25' W 094°44'0 0.0
2016-Aug-12 09:33N 29°25' W 094°44'0 0.0
2016-Aug-12 08:18N 29°25' W 094°44'58 3.9
2016-Aug-11 17:13N 29°59' W 093°50'4 5.8
2016-Aug-11 16:32N 30°01' W 093°46'5 4.9
2016-Aug-11 15:33N 30°04' W 093°41'5 5.3
2016-Aug-11 14:33N 30°04' W 093°35'5 5.0
2016-Aug-11 13:33N 30°04' W 093°29'5 5.1
2016-Aug-11 12:33N 30°04' W 093°23'4 4.0
2016-Aug-11 11:34N 30°06' W 093°19'3 2.9
2016-Aug-11 10:33N 30°04' W 093°16'4 4.2
2016-Aug-11 09:33N 30°01' W 093°14'4 4.1
2016-Aug-11 08:33N 29°58' W 093°11'4 4.4
2016-Aug-11 07:33N 29°56' W 093°06'5 4.6
2016-Aug-11 06:33N 29°56' W 093°01'4 3.9
2016-Aug-11 05:28N 29°56' W 092°56'4 4.7
2016-Aug-11 04:32N 29°57' W 092°51'5 5.1
2016-Aug-11 03:34N 29°58' W 092°45'4 3.9
2016-Aug-11 02:33N 29°56' W 092°41'5 4.7
2016-Aug-11 01:33N 29°55' W 092°36'5 4.9
2016-Aug-11 00:33N 29°54' W 092°30'5 4.9
2016-Aug-10 23:33N 29°53' W 092°25'4 4.4
2016-Aug-10 22:34N 29°51' W 092°21'4 4.0
2016-Aug-10 21:33N 29°49' W 092°17'5 4.8
2016-Aug-10 20:34N 29°47' W 092°12'4 4.0
2016-Aug-10 19:33N 29°47' W 092°07'5 5.0
2016-Aug-10 18:33N 29°49' W 092°02'5 4.9
2016-Aug-10 17:33N 29°51' W 091°56'145 4.0
2016-Aug-09 05:33N 32°08' W 091°01'9 9.5
2016-Aug-09 04:34N 32°17' W 090°57'5 4.5
2016-Aug-09 03:33N 32°20' W 090°54'0 0.0
2016-Aug-09 02:33N 32°20' W 090°54'0 0.0
2016-Aug-09 01:33N 32°20' W 090°54'0 0.0
2016-Aug-09 00:33N 32°20' W 090°54'2 1.6
2016-Aug-08 23:33N 32°22' W 090°53'2 1.7
2016-Aug-08 22:33N 32°23' W 090°54'0 0.0
2016-Aug-08 21:33N 32°23' W 090°54'0 0.1
2016-Aug-08 20:33N 32°23' W 090°54'1 0.7
2016-Aug-08 19:33N 32°23' W 090°53'1 1.3
2016-Aug-08 18:33N 32°23' W 090°55'2 1.6
2016-Aug-08 17:33N 32°23' W 090°53'0 0.0
2016-Aug-08 16:33N 32°23' W 090°53'0 0.0
2016-Aug-08 15:33N 32°23' W 090°53'0 0.0
2016-Aug-08 14:33N 32°23' W 090°53'0 0.0
2016-Aug-08 13:33N 32°23' W 090°53'0 0.0
2016-Aug-08 12:34N 32°23' W 090°53'0 0.0
2016-Aug-08 11:33N 32°23' W 090°53'1 0.8
2016-Aug-08 10:33N 32°22' W 090°53'1 1.3
2016-Aug-08 09:33N 32°23' W 090°55'0 0.1
2016-Aug-08 08:33N 32°23' W 090°55'0 0.2
2016-Aug-08 07:34N 32°23' W 090°55'0 0.0
2016-Aug-08 06:33N 32°23' W 090°55'0 0.0
2016-Aug-08 05:33N 32°23' W 090°55'0 0.0
2016-Aug-08 04:33N 32°23' W 090°55'0 0.0
2016-Aug-08 03:34N 32°23' W 090°55'1 0.9
2016-Aug-08 02:33N 32°23' W 090°54'4 4.1
2016-Aug-08 01:33N 32°19' W 090°55'6 5.5
2016-Aug-08 00:33N 32°14' W 090°59'6 6.3
2016-Aug-07 23:33N 32°08' W 091°00'5 5.3
2016-Aug-07 22:33N 32°07' W 091°07'6 5.8
2016-Aug-07 21:33N 32°02' W 091°04'140 3.3
2016-Aug-06 02:27N 29°46' W 091°47'5 4.6
2016-Aug-06 01:26N 29°50' W 091°50'14 4.8
2016-Aug-05 22:34N 29°48' W 092°06'7 3.7
2016-Aug-05 20:34N 29°48' W 092°14'0 0.0
2016-Aug-05 19:33N 29°48' W 092°14'1 0.7
2016-Aug-05 18:34N 29°48' W 092°15'3 3.1
2016-Aug-05 17:33N 29°50' W 092°18'3 3.0
2016-Aug-05 16:34N 29°51' W 092°21'5 5.1
2016-Aug-05 15:34N 29°53' W 092°26'13 4.2
2016-Aug-05 12:32N 29°56' W 092°41'5 5.1
2016-Aug-05 11:33N 29°58' W 092°46'5 5.2
2016-Aug-05 10:32N 29°57' W 092°52'5 5.1
2016-Aug-05 09:33N 29°56' W 092°58'5 4.9
2016-Aug-05 08:33N 29°56' W 093°03'5 5.1
2016-Aug-05 07:33N 29°56' W 093°09'5 5.1
2016-Aug-05 06:31N 29°60' W 093°13'7 3.5
2016-Aug-05 04:30N 30°06' W 093°18'1 0.6
2016-Aug-05 03:33N 30°06' W 093°18'2 2.1
2016-Aug-05 02:33N 30°05' W 093°20'4 3.9
2016-Aug-05 01:33N 30°04' W 093°24'5 4.7
2016-Aug-05 00:33N 30°04' W 093°30'5 4.8
2016-Aug-04 23:33N 30°04' W 093°35'5 5.4
2016-Aug-04 22:33N 30°04' W 093°42'5 4.7
2016-Aug-04 21:31N 30°00' W 093°46'39 5.5
2016-Aug-04 14:25N 29°36' W 094°22'22 4.5
2016-Aug-04 09:33N 29°25' W 094°43'  
Track history (hours):
 
Tides and Currents Weather Stations Pressure Air Temp Water Temp Dewpoint Dewpoint Depression Visibility Wind Speed Wind Dir Waves Ship Positions

W.w. Crum

Owner: Magnolia Marine Transport Co, Vicksburg, MS. More information available from US FCC via Universal Licensing System and Coast Guard Vessel Documentation Center.

Last reported at 2016-Aug-12 13:22 UTC. Time now 2016-Aug-28 02:19 UTC.
Position N 29°25' W 094°44'.
Warning: this ship's position is 15 days out of date.

Length 40 m; draft 3 m.

Type: Towing. MMSI: 366939330.

Date/timePositionNaut miles runAvg speedWind from/ knotsBaromVisibWave heightAir tempDewpointWater temp
2016-Aug-12 13:22N 29°25' W 094°44'0 0.0
2016-Aug-12 12:31N 29°25' W 094°44'0 0.0
2016-Aug-12 11:25N 29°25' W 094°44'0 0.0
2016-Aug-12 10:08N 29°25' W 094°44'0 0.0
2016-Aug-12 09:33N 29°25' W 094°44'0 0.0
2016-Aug-12 08:18N 29°25' W 094°44'58 3.9
2016-Aug-11 17:13N 29°59' W 093°50'4 5.8
2016-Aug-11 16:32N 30°01' W 093°46'5 4.9
2016-Aug-11 15:33N 30°04' W 093°41'5 5.3
2016-Aug-11 14:33N 30°04' W 093°35'5 5.0
2016-Aug-11 13:33N 30°04' W 093°29'5 5.1
2016-Aug-11 12:33N 30°04' W 093°23'4 4.0
2016-Aug-11 11:34N 30°06' W 093°19'3 2.9
2016-Aug-11 10:33N 30°04' W 093°16'4 4.2
2016-Aug-11 09:33N 30°01' W 093°14'4 4.1
2016-Aug-11 08:33N 29°58' W 093°11'4 4.4
2016-Aug-11 07:33N 29°56' W 093°06'5 4.6
2016-Aug-11 06:33N 29°56' W 093°01'4 3.9
2016-Aug-11 05:28N 29°56' W 092°56'4 4.7
2016-Aug-11 04:32N 29°57' W 092°51'5 5.1
2016-Aug-11 03:34N 29°58' W 092°45'4 3.9
2016-Aug-11 02:33N 29°56' W 092°41'5 4.7
2016-Aug-11 01:33N 29°55' W 092°36'5 4.9
2016-Aug-11 00:33N 29°54' W 092°30'5 4.9
2016-Aug-10 23:33N 29°53' W 092°25'4 4.4
2016-Aug-10 22:34N 29°51' W 092°21'4 4.0
2016-Aug-10 21:33N 29°49' W 092°17'5 4.8
2016-Aug-10 20:34N 29°47' W 092°12'4 4.0
2016-Aug-10 19:33N 29°47' W 092°07'5 5.0
2016-Aug-10 18:33N 29°49' W 092°02'5 4.9
2016-Aug-10 17:33N 29°51' W 091°56'145 4.0
2016-Aug-09 05:33N 32°08' W 091°01'9 9.5
2016-Aug-09 04:34N 32°17' W 090°57'5 4.5
2016-Aug-09 03:33N 32°20' W 090°54'0 0.0
2016-Aug-09 02:33N 32°20' W 090°54'0 0.0
2016-Aug-09 01:33N 32°20' W 090°54'0 0.0
2016-Aug-09 00:33N 32°20' W 090°54'2 1.6
2016-Aug-08 23:33N 32°22' W 090°53'2 1.7
2016-Aug-08 22:33N 32°23' W 090°54'0 0.0
2016-Aug-08 21:33N 32°23' W 090°54'0 0.1
2016-Aug-08 20:33N 32°23' W 090°54'1 0.7
2016-Aug-08 19:33N 32°23' W 090°53'1 1.3
2016-Aug-08 18:33N 32°23' W 090°55'2 1.6
2016-Aug-08 17:33N 32°23' W 090°53'0 0.0
2016-Aug-08 16:33N 32°23' W 090°53'0 0.0
2016-Aug-08 15:33N 32°23' W 090°53'0 0.0
2016-Aug-08 14:33N 32°23' W 090°53'0 0.0
2016-Aug-08 13:33N 32°23' W 090°53'0 0.0
2016-Aug-08 12:34N 32°23' W 090°53'0 0.0
2016-Aug-08 11:33N 32°23' W 090°53'1 0.8
2016-Aug-08 10:33N 32°22' W 090°53'1 1.3
2016-Aug-08 09:33N 32°23' W 090°55'0 0.1
2016-Aug-08 08:33N 32°23' W 090°55'0 0.2
2016-Aug-08 07:34N 32°23' W 090°55'0 0.0
2016-Aug-08 06:33N 32°23' W 090°55'0 0.0
2016-Aug-08 05:33N 32°23' W 090°55'0 0.0
2016-Aug-08 04:33N 32°23' W 090°55'0 0.0
2016-Aug-08 03:34N 32°23' W 090°55'1 0.9
2016-Aug-08 02:33N 32°23' W 090°54'4 4.1
2016-Aug-08 01:33N 32°19' W 090°55'6 5.5
2016-Aug-08 00:33N 32°14' W 090°59'6 6.3
2016-Aug-07 23:33N 32°08' W 091°00'5 5.3
2016-Aug-07 22:33N 32°07' W 091°07'6 5.8
2016-Aug-07 21:33N 32°02' W 091°04'140 3.3
2016-Aug-06 02:27N 29°46' W 091°47'5 4.6
2016-Aug-06 01:26N 29°50' W 091°50'14 4.8
2016-Aug-05 22:34N 29°48' W 092°06'7 3.7
2016-Aug-05 20:34N 29°48' W 092°14'0 0.0
2016-Aug-05 19:33N 29°48' W 092°14'1 0.7
2016-Aug-05 18:34N 29°48' W 092°15'3 3.1
2016-Aug-05 17:33N 29°50' W 092°18'3 3.0
2016-Aug-05 16:34N 29°51' W 092°21'5 5.1
2016-Aug-05 15:34N 29°53' W 092°26'13 4.2
2016-Aug-05 12:32N 29°56' W 092°41'5 5.1
2016-Aug-05 11:33N 29°58' W 092°46'5 5.2
2016-Aug-05 10:32N 29°57' W 092°52'5 5.1
2016-Aug-05 09:33N 29°56' W 092°58'5 4.9
2016-Aug-05 08:33N 29°56' W 093°03'5 5.1
2016-Aug-05 07:33N 29°56' W 093°09'5 5.1
2016-Aug-05 06:31N 29°60' W 093°13'7 3.5
2016-Aug-05 04:30N 30°06' W 093°18'1 0.6
2016-Aug-05 03:33N 30°06' W 093°18'2 2.1
2016-Aug-05 02:33N 30°05' W 093°20'4 3.9
2016-Aug-05 01:33N 30°04' W 093°24'5 4.7
2016-Aug-05 00:33N 30°04' W 093°30'5 4.8
2016-Aug-04 23:33N 30°04' W 093°35'5 5.4
2016-Aug-04 22:33N 30°04' W 093°42'5 4.7
2016-Aug-04 21:31N 30°00' W 093°46'39 5.5
2016-Aug-04 14:25N 29°36' W 094°22'22 4.5
2016-Aug-04 09:33N 29°25' W 094°43'  

Dump ship's entire track history